createdAt,value
2023-05-06T00:02:23.159Z,98525.00
2023-05-06T00:04:49.751Z,98527.16
2023-05-06T00:07:16.836Z,98520.06
2023-05-06T00:09:43.348Z,98517.16
2023-05-06T00:12:09.950Z,98513.09
2023-05-06T00:14:41.816Z,98511.41
2023-05-06T00:17:08.369Z,98508.03
2023-05-06T00:19:40.824Z,98501.44
2023-05-06T00:22:07.389Z,98505.03
2023-05-06T00:24:33.875Z,98501.16
2023-05-06T00:27:01.628Z,98498.44
2023-05-06T00:29:28.121Z,98495.28
2023-05-06T00:31:54.729Z,98496.72
2023-05-06T00:34:21.279Z,98492.63
2023-05-06T00:36:47.750Z,98490.19
2023-05-06T00:39:14.252Z,98491.66
2023-05-06T00:41:40.707Z,98493.81
2023-05-06T00:44:07.312Z,98494.41
2023-05-06T00:46:33.853Z,98488.16
2023-05-06T00:49:00.557Z,98487.56
2023-05-06T00:51:27.516Z,98491.66
2023-05-06T00:53:57.011Z,98490.09
2023-05-06T00:56:23.764Z,98480.84
2023-05-06T00:58:53.402Z,98485.88
2023-05-06T01:01:22.808Z,98481.31
2023-05-06T01:03:49.530Z,98487.25
2023-05-06T01:06:45.275Z,98482.06
2023-05-06T01:09:21.450Z,98478.44
2023-05-06T01:12:14.374Z,98478.81
2023-05-06T01:15:09.387Z,98474.94
2023-05-06T01:17:44.832Z,98479.53
2023-05-06T01:20:13.170Z,98481.44
2023-05-06T01:22:39.702Z,98476.75
2023-05-06T01:25:26.418Z,98476.28
2023-05-06T01:27:52.898Z,98480.72
2023-05-06T01:30:28.647Z,98483.63
2023-05-06T01:33:14.882Z,98488.31
2023-05-06T01:36:27.272Z,98479.53
2023-05-06T01:39:24.998Z,98477.59
2023-05-06T01:41:55.838Z,98481.44
2023-05-06T01:44:25.181Z,98486.72
2023-05-06T01:46:53.693Z,98494.53
2023-05-06T01:49:23.320Z,98492.59
2023-05-06T01:51:51.604Z,98494.28
2023-05-06T01:54:18.732Z,98488.78
2023-05-06T01:56:45.816Z,98498.28
2023-05-06T01:59:16.628Z,98486.13
2023-05-06T02:01:52.073Z,98499.13
2023-05-06T02:04:18.599Z,98494.13
2023-05-06T02:07:01.012Z,98492.19
2023-05-06T02:09:27.522Z,98493.88
2023-05-06T02:11:53.969Z,98499.16
2023-05-06T02:14:20.465Z,98495.56
2023-05-06T02:16:46.965Z,98492.91
2023-05-06T02:19:13.417Z,98496.63
2023-05-06T02:21:45.592Z,98503.13
2023-05-06T02:24:12.441Z,98500.94
2023-05-06T02:26:38.908Z,98502.28
2023-05-06T02:29:05.474Z,98496.41
2023-05-06T02:31:31.977Z,98495.44
2023-05-06T02:33:58.428Z,98491.72
2023-05-06T02:36:24.896Z,98494.22
2023-05-06T02:38:51.397Z,98496.53
2023-05-06T02:41:17.967Z,98501.53
2023-05-06T02:43:44.457Z,98502.66
2023-05-06T02:46:11.389Z,98502.88
2023-05-06T02:48:49.125Z,98497.72
2023-05-06T02:51:16.056Z,98504.28
2023-05-06T02:53:42.515Z,98505.88
2023-05-06T02:56:08.936Z,98496.72
2023-05-06T02:58:35.395Z,98497.81
2023-05-06T03:01:01.949Z,98498.06
2023-05-06T03:03:33.763Z,98504.88
2023-05-06T03:06:03.394Z,98498.66
2023-05-06T03:08:29.954Z,98500.56
2023-05-06T03:10:59.436Z,98501.91
2023-05-06T03:13:30.937Z,98498.66
2023-05-06T03:15:57.406Z,98497.34
2023-05-06T03:18:26.754Z,98496.38
2023-05-06T03:20:53.280Z,98506.56
2023-05-06T03:23:19.804Z,98500.47
2023-05-06T03:25:46.240Z,98501.56
2023-05-06T03:28:12.797Z,98502.41
2023-05-06T03:30:39.756Z,98504.44
2023-05-06T03:33:06.382Z,98516.09
2023-05-06T03:35:32.998Z,98514.53
2023-05-06T03:38:07.310Z,98515.72
2023-05-06T03:40:39.347Z,98512.38
2023-05-06T03:43:05.856Z,98512.25
2023-05-06T03:45:44.849Z,98516.47
2023-05-06T03:48:14.314Z,98518.38
2023-05-06T03:50:43.951Z,98514.50
2023-05-06T03:53:10.707Z,98509.94
2023-05-06T03:55:37.280Z,98507.44
2023-05-06T03:58:03.758Z,98505.50
2023-05-06T04:00:30.261Z,98503.09
2023-05-06T04:02:58.836Z,98502.22
2023-05-06T04:05:25.427Z,98497.94
2023-05-06T04:07:51.895Z,98503.56
2023-05-06T04:10:18.538Z,98510.09
2023-05-06T04:12:44.999Z,98507.09
2023-05-06T04:15:12.098Z,98511.38
2023-05-06T04:17:41.408Z,98512.81
2023-05-06T04:20:09.502Z,98512.38
2023-05-06T04:22:36.058Z,98509.25
2023-05-06T04:25:02.626Z,98507.94
2023-05-06T04:27:29.806Z,98515.13
2023-05-06T04:29:56.802Z,98510.81
2023-05-06T04:32:34.074Z,98523.72
2023-05-06T04:35:00.672Z,98522.09
2023-05-06T04:37:28.297Z,98521.00
2023-05-06T04:39:55.786Z,98526.13
2023-05-06T04:42:22.651Z,98529.47
2023-05-06T04:44:52.370Z,98535.38
2023-05-06T04:47:18.854Z,98530.50
2023-05-06T04:49:45.350Z,98532.13
2023-05-06T04:52:14.178Z,98535.44
2023-05-06T04:54:40.783Z,98534.03
2023-05-06T04:57:10.047Z,98535.16
2023-05-06T04:59:36.512Z,98534.94
2023-05-06T05:02:12.265Z,98544.38
2023-05-06T05:04:38.883Z,98546.78
2023-05-06T05:07:05.518Z,98547.50
2023-05-06T05:09:38.556Z,98550.09
2023-05-06T05:12:05.459Z,98551.44
2023-05-06T05:14:39.321Z,98551.88
2023-05-06T05:17:05.844Z,98548.66
2023-05-06T05:19:32.332Z,98554.13
2023-05-06T05:21:58.922Z,98555.78
2023-05-06T05:24:31.184Z,98560.63
2023-05-06T05:26:57.635Z,98564.69
2023-05-06T05:29:24.261Z,98559.97
2023-05-06T05:31:50.746Z,98563.94
2023-05-06T05:34:17.223Z,98559.63
2023-05-06T05:36:43.687Z,98566.13
2023-05-06T05:39:10.175Z,98565.50
2023-05-06T05:41:36.675Z,98563.13
2023-05-06T05:44:03.259Z,98562.69
2023-05-06T05:46:29.986Z,98566.78
2023-05-06T05:48:56.517Z,98570.34
2023-05-06T05:51:22.986Z,98567.34
2023-05-06T05:53:49.669Z,98566.41
2023-05-06T05:56:16.626Z,98569.09
2023-05-06T05:58:43.283Z,98574.63
2023-05-06T06:01:09.785Z,98571.84
2023-05-06T06:03:36.439Z,98569.94
2023-05-06T06:06:03.168Z,98574.50
2023-05-06T06:08:29.934Z,98568.16
2023-05-06T06:10:56.462Z,98572.19
2023-05-06T06:13:23.162Z,98570.28
2023-05-06T06:15:50.347Z,98570.53
2023-05-06T06:18:20.025Z,98574.84
2023-05-06T06:20:46.688Z,98570.31
2023-05-06T06:23:22.776Z,98576.28
2023-05-06T06:25:49.348Z,98573.25
2023-05-06T06:28:22.072Z,98574.06
2023-05-06T06:30:48.571Z,98573.81
2023-05-06T06:33:15.060Z,98570.59
2023-05-06T06:35:41.574Z,98571.78
2023-05-06T06:38:08.034Z,98569.88
2023-05-06T06:40:34.531Z,98574.19
2023-05-06T06:43:04.961Z,98573.16
2023-05-06T06:45:31.499Z,98577.63
2023-05-06T06:47:58.039Z,98578.59
2023-05-06T06:50:24.594Z,98570.88
2023-05-06T06:52:51.111Z,98575.91
2023-05-06T06:55:17.702Z,98575.38
2023-05-06T06:57:44.239Z,98579.19
2023-05-06T07:00:11.567Z,98573.09
2023-05-06T07:02:41.082Z,98577.69
2023-05-06T07:05:08.309Z,98580.84
2023-05-06T07:07:35.034Z,98585.78
2023-05-06T07:10:01.592Z,98581.63
2023-05-06T07:12:28.430Z,98581.13
2023-05-06T07:14:54.921Z,98589.25
2023-05-06T07:17:21.462Z,98586.34
2023-05-06T07:19:47.994Z,98581.56
2023-05-06T07:22:14.502Z,98587.09
2023-05-06T07:24:41.424Z,98593.13
2023-05-06T07:27:08.040Z,98595.66
2023-05-06T07:29:36.602Z,98594.88
2023-05-06T07:32:03.619Z,98595.81
2023-05-06T07:34:30.421Z,98601.78
2023-05-06T07:36:57.202Z,98598.94
2023-05-06T07:39:23.698Z,98594.47
2023-05-06T07:41:53.123Z,98588.66
2023-05-06T07:44:19.627Z,98594.09
2023-05-06T07:46:46.328Z,98594.94
2023-05-06T07:49:12.825Z,98595.22
2023-05-06T07:51:39.645Z,98589.84
2023-05-06T07:54:06.191Z,98594.09
2023-05-06T07:56:32.642Z,98598.03
2023-05-06T07:58:59.910Z,98590.41
2023-05-06T08:01:28.941Z,98584.28
2023-05-06T08:03:55.551Z,98592.44
2023-05-06T08:06:22.163Z,98594.25
2023-05-06T08:08:48.691Z,98587.16
2023-05-06T08:11:19.251Z,98602.00
2023-05-06T08:13:47.092Z,98598.94
2023-05-06T08:16:13.898Z,98592.25
2023-05-06T08:18:40.548Z,98606.94
2023-05-06T08:21:07.091Z,98598.44
2023-05-06T08:23:33.680Z,98600.09
2023-05-06T08:26:00.195Z,98604.03
2023-05-06T08:28:26.791Z,98603.31
2023-05-06T08:30:53.351Z,98596.63
2023-05-06T08:33:20.044Z,98602.09
2023-05-06T08:35:50.645Z,98599.84
2023-05-06T08:38:17.137Z,98600.41
2023-05-06T08:40:44.925Z,98597.34
2023-05-06T08:43:14.543Z,98591.19
2023-05-06T08:45:42.258Z,98592.56
2023-05-06T08:48:09.440Z,98590.03
2023-05-06T08:50:43.092Z,98592.81
2023-05-06T08:53:13.883Z,98584.25
2023-05-06T08:55:45.160Z,98591.31
2023-05-06T08:58:16.713Z,98590.38
2023-05-06T09:00:46.772Z,98584.28
2023-05-06T09:03:13.566Z,98584.09
2023-05-06T09:05:49.893Z,98574.94
2023-05-06T09:08:16.411Z,98574.50
2023-05-06T09:10:45.053Z,98576.19
2023-05-06T09:13:20.615Z,98566.50
2023-05-06T09:15:49.433Z,98571.94
2023-05-06T09:18:19.788Z,98574.34
2023-05-06T09:20:49.377Z,98570.34
2023-05-06T09:23:18.126Z,98568.09
2023-05-06T09:25:46.883Z,98566.25
2023-05-06T09:28:14.522Z,98563.13
2023-05-06T09:30:43.746Z,98564.78
2023-05-06T09:33:11.888Z,98558.25
2023-05-06T09:35:43.696Z,98557.09
2023-05-06T09:38:10.680Z,98563.28
2023-05-06T09:40:41.074Z,98558.53
2023-05-06T09:43:08.795Z,98559.47
2023-05-06T09:45:36.291Z,98559.13
2023-05-06T09:48:02.901Z,98557.28
2023-05-06T09:50:29.406Z,98552.75
2023-05-06T09:52:56.555Z,98545.97
2023-05-06T09:55:28.934Z,98555.06
2023-05-06T09:57:58.098Z,98549.72
2023-05-06T10:00:31.268Z,98553.94
2023-05-06T10:02:58.941Z,98552.47
2023-05-06T10:05:27.133Z,98551.59
2023-05-06T10:07:57.218Z,98544.00
2023-05-06T10:10:27.010Z,98544.19
2023-05-06T10:12:54.336Z,98541.34
2023-05-06T10:15:21.822Z,98539.28
2023-05-06T10:17:52.533Z,98537.63
2023-05-06T10:20:24.137Z,98535.78
2023-05-06T10:23:29.381Z,98533.56
2023-05-06T10:26:01.240Z,98523.81
2023-05-06T10:28:30.935Z,98525.09
2023-05-06T10:30:59.746Z,98521.78
2023-05-06T10:33:27.534Z,98528.22
2023-05-06T10:36:21.327Z,98517.63
2023-05-06T10:38:56.554Z,98522.84
2023-05-06T10:41:27.842Z,98516.53
2023-05-06T10:43:57.216Z,98516.53
2023-05-06T10:46:29.048Z,98514.84
2023-05-06T10:49:04.405Z,98506.84
2023-05-06T10:51:41.255Z,98509.50
2023-05-06T10:54:26.564Z,98490.72
2023-05-06T10:56:53.144Z,98489.91
2023-05-06T10:59:24.912Z,98491.97
2023-05-06T11:01:57.107Z,98493.25
2023-05-06T11:04:23.873Z,98492.47
2023-05-06T11:06:53.604Z,98493.66
2023-05-06T11:09:26.794Z,98488.22
2023-05-06T11:12:06.488Z,98481.91
2023-05-06T11:14:35.738Z,98480.19
2023-05-06T11:17:08.617Z,98487.88
2023-05-06T11:19:39.948Z,98488.25
2023-05-06T11:22:07.369Z,98484.66
2023-05-06T11:24:41.609Z,98486.09
2023-05-06T11:27:10.260Z,98483.63
2023-05-06T11:29:37.856Z,98486.03
2023-05-06T11:32:21.843Z,98488.13
2023-05-06T11:34:48.452Z,98480.03
2023-05-06T11:37:28.921Z,98477.88
2023-05-06T11:39:55.682Z,98479.78
2023-05-06T11:42:28.675Z,98476.38
2023-05-06T11:44:55.951Z,98481.03
2023-05-06T11:47:23.821Z,98477.34
2023-05-06T11:49:54.183Z,98472.09
2023-05-06T11:52:21.154Z,98474.53
2023-05-06T11:54:49.632Z,98468.97
2023-05-06T11:57:16.808Z,98467.94
2023-05-06T11:59:43.261Z,98458.34
2023-05-06T12:02:14.157Z,98458.47
2023-05-06T12:04:47.307Z,98463.13
2023-05-06T12:07:16.283Z,98464.78
2023-05-06T12:09:49.108Z,98450.66
2023-05-06T12:12:22.309Z,98452.16
2023-05-06T12:14:52.901Z,98448.31
2023-05-06T12:17:20.041Z,98455.94
2023-05-06T12:19:47.271Z,98454.88
2023-05-06T12:22:18.669Z,98459.25
2023-05-06T12:24:46.658Z,98457.72
2023-05-06T12:27:13.283Z,98448.69
2023-05-06T12:29:40.075Z,98446.56
2023-05-06T12:32:11.525Z,98451.75
2023-05-06T12:34:41.621Z,98451.13
2023-05-06T12:37:08.773Z,98448.63
2023-05-06T12:39:41.167Z,98441.13
2023-05-06T12:42:07.679Z,98449.34
2023-05-06T12:44:38.135Z,98445.63
2023-05-06T12:47:07.672Z,98442.22
2023-05-06T12:49:52.789Z,98445.75
2023-05-06T12:52:28.613Z,98451.75
2023-05-06T12:54:56.287Z,98442.78
2023-05-06T12:57:23.226Z,98445.94
2023-05-06T12:59:49.944Z,98442.34
2023-05-06T13:02:16.556Z,98443.25
2023-05-06T13:04:44.099Z,98444.06
2023-05-06T13:07:10.653Z,98434.63
2023-05-06T13:09:37.128Z,98438.41
2023-05-06T13:12:04.986Z,98440.31
2023-05-06T13:14:31.555Z,98435.09
2023-05-06T13:17:00.997Z,98438.53
2023-05-06T13:19:33.012Z,98439.91
2023-05-06T13:22:00.592Z,98434.59
2023-05-06T13:24:27.484Z,98431.41
2023-05-06T13:26:53.943Z,98426.28
2023-05-06T13:29:20.609Z,98425.53
2023-05-06T13:31:47.243Z,98425.34
2023-05-06T13:34:13.764Z,98421.59
2023-05-06T13:36:40.336Z,98424.75
2023-05-06T13:39:06.812Z,98423.09
2023-05-06T13:41:33.574Z,98417.53
2023-05-06T13:44:00.199Z,98422.50
2023-05-06T13:46:29.756Z,98421.84
2023-05-06T13:48:56.369Z,98421.84
2023-05-06T13:51:22.854Z,98411.22
2023-05-06T13:53:49.429Z,98418.91
2023-05-06T13:56:15.881Z,98416.53
2023-05-06T13:58:42.350Z,98408.72
2023-05-06T14:01:08.788Z,98409.59
2023-05-06T14:03:35.322Z,98404.81
2023-05-06T14:06:02.031Z,98406.94
2023-05-06T14:08:28.652Z,98410.28
2023-05-06T14:10:55.160Z,98410.19
2023-05-06T14:13:21.752Z,98410.00
2023-05-06T14:15:48.469Z,98415.41
2023-05-06T14:18:15.021Z,98407.59
2023-05-06T14:20:41.549Z,98413.63
2023-05-06T14:23:08.353Z,98403.16
2023-05-06T14:25:35.979Z,98410.63
2023-05-06T14:28:02.518Z,98401.81
2023-05-06T14:30:29.899Z,98409.06
2023-05-06T14:32:56.499Z,98402.66
2023-05-06T14:35:23.223Z,98407.72
2023-05-06T14:37:49.882Z,98405.66
2023-05-06T14:40:17.146Z,98400.63
2023-05-06T14:42:45.285Z,98404.97
2023-05-06T14:45:13.652Z,98397.31
2023-05-06T14:47:40.716Z,98398.47
2023-05-06T14:50:09.517Z,98399.28
2023-05-06T14:52:38.215Z,98394.81
2023-05-06T14:55:08.110Z,98399.03
2023-05-06T14:57:35.213Z,98394.50
2023-05-06T15:00:09.819Z,98392.03
2023-05-06T15:02:38.109Z,98402.13
2023-05-06T15:05:05.559Z,98402.94
2023-05-06T15:07:32.069Z,98397.50
2023-05-06T15:09:58.572Z,98403.34
2023-05-06T15:12:25.153Z,98407.50
2023-05-06T15:14:51.780Z,98405.59
2023-05-06T15:17:18.313Z,98409.69
2023-05-06T15:19:44.800Z,98400.50
2023-05-06T15:22:11.302Z,98400.38
2023-05-06T15:24:37.825Z,98408.66
2023-05-06T15:27:04.407Z,98413.88
2023-05-06T15:29:30.942Z,98413.69
2023-05-06T15:31:57.530Z,98408.44
2023-05-06T15:34:24.501Z,98412.53
2023-05-06T15:36:53.521Z,98403.94
2023-05-06T15:39:20.117Z,98409.53
2023-05-06T15:41:48.048Z,98413.25
2023-05-06T15:44:16.343Z,98414.44
2023-05-06T15:46:43.325Z,98415.59
2023-05-06T15:49:39.496Z,98415.03
2023-05-06T15:51:59.007Z,98420.31
2023-05-06T15:54:27.335Z,98439.91
2023-05-06T15:56:54.053Z,98472.75
2023-05-06T15:59:20.530Z,98457.22
2023-05-06T16:04:17.024Z,98462.13
2023-05-06T16:06:43.648Z,98460.31
2023-05-06T16:09:10.366Z,98463.63
2023-05-06T16:11:36.953Z,98463.22
2023-05-06T16:14:03.992Z,98460.22
2023-05-06T16:16:30.592Z,98469.53
2023-05-06T16:18:57.197Z,98463.53
2023-05-06T16:21:23.969Z,98464.69
2023-05-06T16:23:50.792Z,98468.78
2023-05-06T16:26:17.752Z,98468.00
2023-05-06T16:28:44.379Z,98476.38
2023-05-06T16:31:10.977Z,98470.00
2023-05-06T16:33:37.517Z,98477.06
2023-05-06T16:36:04.355Z,98474.88
2023-05-06T16:38:30.872Z,98470.69
2023-05-06T16:40:57.369Z,98482.41
2023-05-06T16:43:23.881Z,98472.88
2023-05-06T16:45:50.570Z,98480.75
2023-05-06T16:48:17.263Z,98483.09
2023-05-06T16:50:43.825Z,98478.59
2023-05-06T16:53:10.588Z,98479.41
2023-05-06T16:55:37.126Z,98473.56
2023-05-06T16:58:04.102Z,98474.91
2023-05-06T17:00:31.965Z,98472.91
2023-05-06T17:02:58.766Z,98471.09
2023-05-06T17:05:25.713Z,98465.88
2023-05-06T17:07:52.601Z,98465.72
2023-05-06T17:10:19.192Z,98475.44
2023-05-06T17:12:46.037Z,98470.09
2023-05-06T17:15:12.532Z,98472.75
2023-05-06T17:17:40.029Z,98469.41
2023-05-06T17:20:07.839Z,98469.41
2023-05-06T17:22:34.456Z,98468.06
2023-05-06T17:25:00.937Z,98467.84
2023-05-06T17:27:27.489Z,98465.84
2023-05-06T17:29:54.061Z,98469.03
2023-05-06T17:32:20.701Z,98472.53
2023-05-06T17:34:47.219Z,98479.03
2023-05-06T17:37:13.760Z,98474.69
2023-05-06T17:39:40.306Z,98477.19
2023-05-06T17:42:06.929Z,98476.34
2023-05-06T17:44:35.185Z,98473.69
2023-05-06T17:47:01.821Z,98468.50
2023-05-06T17:49:28.350Z,98464.28
2023-05-06T17:51:55.932Z,98464.28
2023-05-06T17:54:22.992Z,98462.91
2023-05-06T17:56:52.647Z,98467.88
2023-05-06T17:59:23.001Z,98470.38
2023-05-06T18:01:49.654Z,98466.81
2023-05-06T18:04:16.346Z,98472.38
2023-05-06T18:06:46.328Z,98470.22
2023-05-06T18:09:12.942Z,98467.59
2023-05-06T18:11:40.339Z,98466.38
2023-05-06T18:14:06.967Z,98465.53
2023-05-06T18:16:33.587Z,98463.34
2023-05-06T18:19:04.972Z,98466.28
2023-05-06T18:21:33.804Z,98464.16
2023-05-06T18:24:10.116Z,98456.66
2023-05-06T18:26:45.289Z,98458.31
2023-05-06T18:29:12.741Z,98468.25
2023-05-06T18:31:39.448Z,98479.88
2023-05-06T18:34:06.079Z,98482.66
2023-05-06T18:36:33.537Z,98473.09
2023-05-06T18:39:01.221Z,98466.75
2023-05-06T18:41:27.778Z,98465.66
2023-05-06T18:43:54.307Z,98466.19
2023-05-06T18:46:21.382Z,98461.69
2023-05-06T18:48:48.132Z,98467.69
2023-05-06T18:51:17.125Z,98465.72
2023-05-06T18:53:44.812Z,98468.06
2023-05-06T18:56:11.874Z,98475.91
2023-05-06T18:58:40.514Z,98473.69
2023-05-06T19:01:09.738Z,98486.16
2023-05-06T19:03:37.893Z,98480.13
2023-05-06T19:06:10.514Z,98487.19
2023-05-06T19:08:37.677Z,98483.47
2023-05-06T19:11:04.367Z,98479.81
2023-05-06T19:13:31.211Z,98480.59
2023-05-06T19:15:57.818Z,98485.81
2023-05-06T19:18:24.419Z,98482.03
2023-05-06T19:20:51.424Z,98486.69
2023-05-06T19:23:19.144Z,98490.25
2023-05-06T19:25:45.897Z,98491.09
2023-05-06T19:28:12.459Z,98487.94
2023-05-06T19:30:39.141Z,98481.69
2023-05-06T19:33:05.721Z,98486.56
2023-05-06T19:35:39.648Z,98495.91
2023-05-06T19:38:09.313Z,98490.59
2023-05-06T19:40:35.899Z,98488.34
2023-05-06T19:43:05.466Z,98487.94
2023-05-06T19:45:33.450Z,98490.06
2023-05-06T19:48:01.211Z,98483.69
2023-05-06T19:50:28.426Z,98487.31
2023-05-06T19:52:54.888Z,98484.19
2023-05-06T19:55:22.157Z,98490.97
2023-05-06T19:57:50.322Z,98493.03
2023-05-06T20:00:19.911Z,98488.75
2023-05-06T20:02:46.611Z,98490.66
2023-05-06T20:05:13.663Z,98497.63
2023-05-06T20:07:41.188Z,98492.47
2023-05-06T20:10:09.991Z,98491.09
2023-05-06T20:12:36.561Z,98493.63
2023-05-06T20:15:06.866Z,98492.06
2023-05-06T20:17:34.520Z,98491.66
2023-05-06T20:20:02.746Z,98495.31
2023-05-06T20:22:32.262Z,98495.16
2023-05-06T20:25:12.948Z,98485.84
2023-05-06T20:27:39.573Z,98488.00
2023-05-06T20:30:08.050Z,98484.06
2023-05-06T20:32:34.950Z,98481.09
2023-05-06T20:35:01.650Z,98487.41
2023-05-06T20:37:29.302Z,98490.53
2023-05-06T20:39:56.296Z,98484.94
2023-05-06T20:42:22.823Z,98486.31
2023-05-06T20:44:51.281Z,98480.44
2023-05-06T20:47:18.455Z,98489.53
2023-05-06T20:49:45.000Z,98481.16
2023-05-06T20:52:14.385Z,98474.84
2023-05-06T20:54:45.429Z,98470.09
2023-05-06T20:57:15.195Z,98477.25
2023-05-06T20:59:42.751Z,98473.03
2023-05-06T21:02:10.016Z,98473.56
2023-05-06T21:04:36.664Z,98470.81
2023-05-06T21:07:03.324Z,98480.59
2023-05-06T21:09:29.821Z,98481.16
2023-05-06T21:11:56.624Z,98480.84
2023-05-06T21:14:26.420Z,98486.47
2023-05-06T21:16:53.706Z,98483.09
2023-05-06T21:19:20.668Z,98485.22
2023-05-06T21:21:47.190Z,98474.88
2023-05-06T21:24:13.795Z,98475.03
2023-05-06T21:26:40.264Z,98476.56
2023-05-06T21:29:06.845Z,98491.97
2023-05-06T21:31:33.555Z,98491.41
2023-05-06T21:34:00.312Z,98486.81
2023-05-06T21:36:27.109Z,98485.81
2023-05-06T21:39:07.923Z,98483.56
2023-05-06T21:41:35.942Z,98482.50
2023-05-06T21:44:04.195Z,98484.84
2023-05-06T21:46:31.716Z,98480.91
2023-05-06T21:48:59.485Z,98478.97
2023-05-06T21:51:37.599Z,98490.88
2023-05-06T21:54:04.224Z,98480.66
2023-05-06T21:56:30.768Z,98487.50
2023-05-06T21:58:57.243Z,98484.13
2023-05-06T22:01:26.183Z,98482.63
2023-05-06T22:03:53.961Z,98484.00
2023-05-06T22:06:21.150Z,98480.91
2023-05-06T22:08:47.681Z,98489.06
2023-05-06T22:11:14.355Z,98492.69
2023-05-06T22:13:40.905Z,98486.81
2023-05-06T22:16:08.001Z,98484.28
2023-05-06T22:18:35.886Z,98494.94
2023-05-06T22:21:03.161Z,98490.19
2023-05-06T22:23:29.809Z,98482.91
2023-05-06T22:26:00.248Z,98483.22
2023-05-06T22:28:26.941Z,98483.47
2023-05-06T22:30:53.449Z,98488.09
2023-05-06T22:33:24.953Z,98486.41
2023-05-06T22:35:51.496Z,98485.75
2023-05-06T22:38:18.029Z,98486.53
2023-05-06T22:40:44.552Z,98486.25
2023-05-06T22:43:11.028Z,98490.03
2023-05-06T22:45:37.751Z,98486.00
2023-05-06T22:48:05.326Z,98484.88
2023-05-06T22:50:34.748Z,98486.25
2023-05-06T22:53:07.531Z,98487.66
2023-05-06T22:55:41.299Z,98486.28
2023-05-06T22:58:07.759Z,98482.66
2023-05-06T23:00:34.328Z,98478.59
2023-05-06T23:03:00.867Z,98478.72
2023-05-06T23:05:27.399Z,98478.88
2023-05-06T23:07:53.915Z,98472.31
2023-05-06T23:10:20.469Z,98479.44
2023-05-06T23:12:47.045Z,98484.75
2023-05-06T23:15:20.345Z,98483.06
2023-05-06T23:17:46.855Z,98472.03
2023-05-06T23:20:13.654Z,98479.44
2023-05-06T23:22:40.390Z,98477.19
2023-05-06T23:25:09.350Z,98483.44
2023-05-06T23:27:39.965Z,98479.34
2023-05-06T23:30:08.870Z,98478.34
2023-05-06T23:32:38.712Z,98484.19
2023-05-06T23:35:07.143Z,98484.88
2023-05-06T23:37:33.881Z,98484.16
2023-05-06T23:40:00.466Z,98478.84
2023-05-06T23:42:27.080Z,98481.75
2023-05-06T23:44:53.628Z,98481.56
2023-05-06T23:47:20.116Z,98482.34
2023-05-06T23:49:46.772Z,98486.31
2023-05-06T23:52:13.218Z,98482.09
2023-05-06T23:54:39.728Z,98486.91
2023-05-06T23:57:06.461Z,98481.41
2023-05-06T23:59:32.908Z,98488.09
